EKX Airport (Addington Field) Information

FAA: EKX - ICAO: KEKX

EKX Airport Location

State Kentucky
County Hardin
City Elizabethtown
EKX Airport is 4 miles west of Elizabethtown, KY.
Latitude 37-41-09.6000N
Longitude 085-55-30.1000W
Elevation 775ft

KEKX Airport METARs

METAR KEKX 032155Z AUTO 23005KT 10SM CLR 19/08 A2993 RMK AO2 T01890076
Altimeter 29.93"
Temperature 18.9°C (66.0°F)
Wind 230° at 5KT
Clouds Skies are clear.
Visibility 10.0mi
Time observed: 2021-12-03T21:55:00Z

EKX Airport Details

Status Operational
Activation June 1982
Ownership Public
Usage Public
Chart ST LOUIS
ATC on-site No
Beacon schedule sunset-sunrise
Beacon color clear green

EKX Airport Contacts

Owner ELIZABETHTOWN AIRPORT BOARD
Owner address 1828 KITTY HAWK DR, ELIZABETHTOWN, KY 42701
Owner phone (270) 737-8388
Manager SHARON O'ROURKE
Manager address 1880 NORTH US 119, CUMBERLAND, KY 40823
Manager phone 606-574-8423

EKX Airport (Addington Field) Radio Frequencies

EKX (Airport) Radio Frequencies

UNICOM 122.8
Common traffic advisory frequency (CTAF) 122.8